GW6781 Weather Reports


Display with metric or nautical units.
time (UTC)temp
F
wind
direction
speed
MPH
gust
MPH
rain 1hr
in
rain 24hr
in
rain mn
in
humidity
%
barometer
mb
20260503184556 59 9 2.0 9.0 0.00 0.00 0.00 45 1019.4
20260503184057 59 200 4.0 9.0 0.00 0.00 0.00 48 1019.3
20260503183557 60 197 3.0 9.0 0.00 0.00 0.00 46 1019.4
20260503183109 59 0 2.0 9.0 0.00 0.00 0.00 50 1019.5
20260503182557 59 323 2.0 5.0 0.00 0.00 0.00 46 1019.6
20260503182057 58 74 1.0 4.0 0.00 0.00 0.00 47 1019.6
20260503181558 58 110 1.0 10.0 0.00 0.00 0.00 51 1019.7
20260503181058 57 0 2.0 10.0 0.00 0.00 0.00 51 1019.9
20260503180600 57 173 4.0 10.0 0.00 0.00 0.00 51 1019.9
20260503180100 57 194 4.0 10.0 0.00 0.00 0.00 52 1020.0
20260503175557 57 126 2.0 9.0 0.00 0.00 0.00 56 1019.8
20260503175057 57 0 3.0 9.0 0.00 0.00 0.00 52 1019.9
20260503174558 57 134 4.0 9.0 0.00 0.00 0.00 53 1019.9
20260503174102 57 178 2.0 8.0 0.00 0.00 0.00 54 1019.9
20260503173601 56 0 1.0 8.0 0.00 0.00 0.00 50 1020.2
20260503173112 56 203 4.0 9.0 0.00 0.00 0.00 52 1020.2
20260503172558 56 198 1.0 10.0 0.00 0.00 0.00 51 1020.3
20260503172100 57 139 4.0 10.0 0.00 0.00 0.00 51 1020.4
20260503171557 57 202 2.0 11.0 0.00 0.00 0.00 55 1020.7
20260503171057 56 226 1.0 11.0 0.00 0.00 0.00 55 1020.5
20260503170558 55 159 6.0 15.0 0.00 0.00 0.00 52 1020.5
20260503170106 55 206 5.0 15.0 0.00 0.00 0.00 51 1020.6
20260503150557 53 103 1.0 7.0 0.00 0.00 0.00 55 1021.6
20260503150112 52 0 1.0 8.0 0.00 0.00 0.00 54 1021.5
20260503140119 52 71 2.0 6.0 0.00 0.00 0.00 54 1021.4
20260503131057 51 30 1.0 5.0 0.00 0.00 0.00 57 1021.4
20260503130557 51 41 1.0 5.0 0.00 0.00 0.00 55 1021.5
20260503130104 51 94 1.0 4.0 0.00 0.00 0.00 60 1021.2
20260503110600 44 297 0.0 2.0 0.00 0.00 0.00 72 1020.0
20260503110107 44 297 0.0 2.0 0.00 0.00 0.00 73 1020.1
20260503100107 43 0 0.0 1.0 0.00 0.00 0.00 73 1019.3
20260503090112 44 0 0.0 0.0 0.00 0.00 0.00 74 1019.0
20260503081620 45 0 0.0 1.0 0.00 0.00 0.00 72 1018.7
20260503081057 45 0 0.0 1.0 0.00 0.00 0.00 72 1018.5
20260503080559 45 0 0.0 1.0 0.00 0.00 0.00 71 1018.7
20260503080103 45 0 0.0 1.0 0.00 0.00 0.00 71 1018.4
20260503072557 47 0 0.0 0.0 0.00 0.00 0.00 70 1018.5
20260503072100 47 0 0.0 0.0 0.00 0.00 0.00 69 1018.4
20260503071609 47 0 0.0 0.0 0.00 0.00 0.00 69 1018.4
20260503071057 47 0 0.0 0.0 0.00 0.00 0.00 69 1018.5
20260503070557 47 0 0.0 1.0 0.00 0.00 0.00 69 1018.2
20260503070104 47 0 0.0 1.0 0.00 0.00 0.00 69 1018.2
20260503060114 48 0 0.0 2.0 0.00 0.00 0.00 69 1018.0
20260503055057 48 0 0.0 2.0 0.00 0.00 0.00 69 1018.0
20260503054558 48 0 0.0 1.0 0.00 0.00 0.00 70 1017.9
20260503054057 48 0 0.0 1.0 0.00 0.00 0.00 69 1018.1
20260503053557 48 0 0.0 1.0 0.00 0.00 0.00 70 1018.0
20260503053058 48 0 0.0 2.0 0.00 0.00 0.00 70 1018.0
20260503052556 48 0 0.0 2.0 0.00 0.00 0.00 69 1017.9
20260503052058 48 0 0.0 2.0 0.00 0.00 0.00 68 1017.9
20260503051600 48 0 0.0 1.0 0.00 0.00 0.00 68 1017.8
20260503051057 48 0 0.0 1.0 0.00 0.00 0.00 68 1017.9
20260503050601 49 279 0.0 2.0 0.00 0.00 0.00 69 1017.9
20260503050059 49 0 0.0 2.0 0.00 0.00 0.00 67 1017.8
20260503045557 49 0 0.0 1.0 0.00 0.00 0.00 68 1017.8
20260503045058 49 0 0.0 2.0 0.00 0.00 0.00 68 1017.6
20260503044556 49 0 0.0 2.0 0.00 0.00 0.00 67 1017.6
20260503044101 49 0 0.0 2.0 0.00 0.00 0.00 67 1017.7
20260503043557 49 0 0.0 2.0 0.00 0.00 0.00 67 1017.8
20260503043058 49 0 0.0 2.0 0.00 0.00 0.00 68 1017.6
20260503042557 49 0 0.0 2.0 0.00 0.00 0.00 67 1017.7
20260503042057 49 0 0.0 0.0 0.00 0.00 0.00 68 1017.8
20260503041555 49 0 0.0 1.0 0.00 0.00 0.00 67 1017.7
20260503041058 49 0 0.0 1.0 0.00 0.00 0.00 67 1017.6
20260503040557 49 299 0.0 1.0 0.00 0.00 0.00 66 1017.6
20260503040059 49 0 0.0 3.0 0.00 0.00 0.00 66 1017.4
20260503035558 49 0 0.0 3.0 0.00 0.00 0.00 66 1017.5
20260503035059 49 0 0.0 4.0 0.00 0.00 0.00 65 1017.4
20260503034601 49 0 0.0 4.0 0.00 0.00 0.00 65 1017.5
20260503034057 49 272 0.0 4.0 0.00 0.00 0.00 66 1017.5
20260503033556 49 0 0.0 4.0 0.00 0.00 0.00 65 1017.4
20260503033100 49 302 0.0 3.0 0.00 0.00 0.00 66 1017.4
20260503032600 49 0 0.0 3.0 0.00 0.00 0.00 66 1017.4
20260503032057 49 296 0.0 4.0 0.00 0.00 0.00 66 1017.3
20260503031600 49 0 0.0 4.0 0.00 0.00 0.00 66 1017.4
20260503031058 49 312 1.0 3.0 0.00 0.00 0.00 66 1017.3
20260503030557 49 0 0.0 3.0 0.00 0.00 0.00 67 1017.3
20260503025559 49 5 0.0 3.0 0.00 0.00 0.00 67 1017.3
20260503025057 49 0 0.0 3.0 0.00 0.00 0.00 67 1017.3
20260503024604 49 0 1.0 5.0 0.00 0.00 0.00 66 1017.1
20260503024057 49 261 0.0 5.0 0.00 0.00 0.00 66 1017.0
20260503023557 49 330 1.0 5.0 0.00 0.00 0.00 66 1017.0
20260503023103 49 332 0.0 3.0 0.00 0.00 0.00 66 1016.9
20260503022557 49 0 0.0 2.0 0.00 0.00 0.00 66 1016.8
20260503022057 49 0 0.0 3.0 0.00 0.00 0.00 65 1017.0
20260503021604 49 298 0.0 3.0 0.00 0.00 0.00 66 1016.9
20260503021100 49 316 0.0 3.0 0.00 0.00 0.00 65 1017.1
20260503020557 49 0 0.0 3.0 0.00 0.00 0.00 65 1017.0
20260503020100 49 225 0.0 3.0 0.00 0.00 0.00 65 1016.8
20260503015559 49 0 0.0 2.0 0.00 0.00 0.00 65 1016.7
20260503015057 49 344 0.0 2.0 0.00 0.00 0.00 65 1016.7
20260503014625 49 0 0.0 2.0 0.00 0.00 0.00 64 1016.5
20260503014057 50 0 0.0 2.0 0.00 0.00 0.00 65 1016.4
20260503013557 50 0 0.0 3.0 0.00 0.00 0.00 64 1016.5
20260503013059 50 313 0.0 3.0 0.00 0.00 0.00 64 1016.4
20260503012600 50 0 0.0 2.0 0.00 0.00 0.00 63 1016.4
20260503012059 50 284 0.0 2.0 0.00 0.00 0.00 63 1016.2
20260503011613 50 0 0.0 4.0 0.00 0.00 0.00 63 1016.1
20260503011057 51 0 0.0 4.0 0.00 0.00 0.00 63 1016.1
20260503010557 51 276 0.0 3.0 0.00 0.00 0.00 62 1016.0
20260503010057 51 0 0.0 3.0 0.00 0.00 0.00 60 1015.9
20260503005557 51 0 0.0 2.0 0.00 0.00 0.00 60 1015.8
20260503005057 52 0 0.0 4.0 0.00 0.00 0.00 59 1015.8
20260503004615 52 0 0.0 4.0 0.00 0.00 0.00 59 1015.8
20260503004056 52 327 0.0 4.0 0.00 0.00 0.00 59 1015.7
20260503003556 52 0 0.0 3.0 0.00 0.00 0.00 58 1015.6
20260503003058 53 0 0.0 3.0 0.00 0.00 0.00 58 1015.6
20260503002600 53 0 0.0 3.0 0.00 0.00 0.00 58 1015.7
20260503002058 53 0 0.0 5.0 0.00 0.00 0.00 57 1015.6
20260503001557 53 303 0.0 5.0 0.00 0.00 0.00 58 1015.6
20260503001100 54 311 0.0 5.0 0.00 0.00 0.00 56 1015.5
20260503000558 54 0 0.0 5.0 0.00 0.00 0.00 57 1015.4
20260503000055 54 0 1.0 5.0 0.00 0.00 0.00 55 1015.4
20260502235557 55 261 2.0 5.0 0.00 0.00 0.00 54 1015.2
20260502235057 55 307 1.0 8.0 0.00 0.00 0.00 54 1015.2
20260502234558 55 352 1.0 8.0 0.00 0.00 0.00 54 1015.0
20260502234057 55 289 1.0 8.0 0.00 0.00 0.00 52 1015.0
20260502233556 55 332 0.0 8.0 0.00 0.00 0.00 54 1014.8
20260502233059 56 296 1.0 8.0 0.00 0.00 0.00 53 1014.8
20260502232557 56 332 2.0 7.0 0.00 0.00 0.00 52 1014.8
20260502232057 56 327 0.0 5.0 0.00 0.00 0.00 50 1014.8
20260502231558 56 309 2.0 9.0 0.00 0.00 0.00 50 1014.8
20260502231057 57 312 2.0 9.0 0.00 0.00 0.00 51 1014.7
20260502230557 57 0 0.0 7.0 0.00 0.00 0.00 55 1014.7
20260502230058 57 0 1.0 7.0 0.00 0.00 0.00 54 1014.9
20260502225557 57 332 1.0 5.0 0.00 0.00 0.00 49 1014.8
20260502225058 58 11 0.0 9.0 0.00 0.00 0.00 50 1014.9
20260502224609 58 77 2.0 9.0 0.00 0.00 0.00 48 1014.7
20260502224057 58 36 2.0 8.0 0.00 0.00 0.00 49 1014.6
20260502223557 59 352 2.0 8.0 0.00 0.00 0.00 47 1014.6
20260502223055 60 340 3.0 8.0 0.00 0.00 0.00 45 1014.5
20260502222558 60 350 1.0 8.0 0.00 0.00 0.00 44 1014.6
20260502222055 60 344 2.0 8.0 0.00 0.00 0.00 48 1014.4
20260502221556 60 329 2.0 5.0 0.00 0.00 0.00 46 1014.4
20260502221055 60 12 1.0 7.0 0.00 0.00 0.00 47 1014.3
20260502220558 60 246 1.0 7.0 0.00 0.00 0.00 47 1014.3
20260502220056 59 0 1.0 4.0 0.00 0.00 0.00 50 1014.3
20260502215558 59 0 1.0 11.0 0.00 0.00 0.00 47 1014.3
20260502215102 58 335 2.0 11.0 0.00 0.00 0.00 49 1014.1
20260502214558 59 323 4.0 11.0 0.00 0.00 0.00 46 1014.1
20260502214058 59 0 1.0 10.0 0.00 0.00 0.00 45 1014.3
20260502213600 59 0 4.0 10.0 0.00 0.00 0.00 46 1014.1
20260502213123 61 294 1.0 7.0 0.00 0.00 0.00 45 1014.0
20260502212556 60 5 1.0 5.0 0.00 0.00 0.00 46 1014.1
20260502212059 59 0 0.0 6.0 0.00 0.00 0.00 44 1014.2
20260502211632 59 314 3.0 9.0 0.00 0.00 0.00 43 1014.2
20260502211057 60 75 1.0 11.0 0.00 0.00 0.00 48 1014.0
20260502210558 60 150 3.0 11.0 0.00 0.00 0.00 43 1013.9
20260502210109 60 360 3.0 11.0 0.00 0.00 0.00 43 1014.0
20260502205555 60 311 2.0 11.0 0.00 0.00 0.00 43 1014.0
20260502205058 60 312 3.0 11.0 0.00 0.00 0.00 45 1014.0
20260502204557 60 315 3.0 9.0 0.00 0.00 0.00 47 1014.0
20260502204058 59 346 1.0 11.0 0.00 0.00 0.00 46 1013.9
20260502203555 59 324 3.0 11.0 0.00 0.00 0.00 43 1014.0
20260502203101 60 327 3.0 10.0 0.00 0.00 0.00 39 1013.9
20260502202558 61 312 0.0 10.0 0.00 0.00 0.00 42 1014.0
20260502202056 60 24 3.0 10.0 0.00 0.00 0.00 40 1014.0
20260502201600 61 347 1.0 4.0 0.00 0.00 0.00 40 1014.1
20260502201055 61 233 0.0 7.0 0.00 0.00 0.00 45 1014.2
20260502200558 61 159 1.0 13.0 0.00 0.00 0.00 44 1014.2
20260502200056 61 0 3.0 13.0 0.00 0.00 0.00 44 1014.2
20260502195557 61 177 1.0 5.0 0.00 0.00 0.00 44 1014.1
20260502195055 61 325 2.0 8.0 0.00 0.00 0.00 47 1014.3
20260502194606 61 322 1.0 8.0 0.00 0.00 0.00 45 1014.3
20260502194055 61 286 1.0 6.0 0.00 0.00 0.00 40 1014.2
20260502193559 60 325 1.0 8.0 0.00 0.00 0.00 45 1014.1
20260502193056 59 350 2.0 10.0 0.00 0.00 0.00 43 1014.2
20260502192556 59 319 3.0 10.0 0.00 0.00 0.00 46 1014.3
20260502192055 60 335 2.0 8.0 0.00 0.00 0.00 42 1014.2
20260502191600 62 332 2.0 10.0 0.00 0.00 0.00 40 1014.1
20260502191055 62 310 3.0 10.0 0.00 0.00 0.00 38 1014.2
20260502190557 62 9 1.0 8.0 0.00 0.00 0.00 46 1014.2
20260502190059 62 240 2.0 10.0 0.00 0.00 0.00 42 1014.3
20260502185557 61 320 2.0 10.0 0.00 0.00 0.00 44 1014.4
20260502185057 62 11 4.0 9.0 0.00 0.00 0.00 39 1014.4